Aviation Digital Data Service (ADDS)

Output produced by METARs form (1156 UTC 23 June 2021)
found at http://www.aviationweather.gov/metar/data/
 
METAR text: EDDG 231150Z 35006KT 300V030 9999 FEW028 BKN048 18/11 Q1021 NOSIG
Conditions at: EDDG (MUENSTER/OSNABRU, DE) observed 1150 UTC 23 June 2021
Temperature: 18.0°C (64°F)
Dewpoint: 11.0°C (52°F) [RH = 64%]
Pressure (altimeter): 30.15 inches Hg (1021.0 mb)
Winds: from the N (350 degrees) at 7 MPH (6 knots; 3.1 m/s)
Visibility: 6 or more miles (10+ km)
Ceiling: 4800 feet AGL
Clouds: few clouds at 2800 feet AGL
broken clouds at 4800 feet AGL
Weather: no significant weather observed at this time

Forecast for: EDDG (MUENSTER/OSNABRU, DE)
Text: TAF EDDG 231100Z 2312/2412 36005KT 9999 SCT040
Forecast period: 1200 UTC 23 June 2021 to 1200 UTC 24 June 2021
Forecast type: FROM: standard forecast or significant change
Winds: from the N (360 degrees) at 6 MPH (5 knots; 2.6 m/s)
Visibility: 6 or more miles (10+ km)
Ceiling: at least 12,000 feet AGL
Clouds: scattered clouds at 4000 feet AGL
Weather: no significant weather forecast for this period